^^
Saratoga-Weather Station Historical Data
 
Daily Summary for October 20, 2019 Units:  English    Metric   Both
Daily Weekly Monthly Yearly Custom
  Current: High: Low: Average:
Temperature: 75 °F 76.6 °F 75 °F 75.8 °F
Dew Point: 71.6 °F 73.2 °F 71.6 °F 72.3 °F
Humidity: 89% 90% 88% 89%
Wind Speed: 0.9mph 8.1mph 0mph 2.5mph
Wind Gust: 6mph 10mph - -
WindSSE - - SSE
Pressure: 29.75 in 29.76 in 29.73 in -
Precipitation: 0 in      
Historical Graphs
 
 
Tabular Data for October 20, 2019
Time Temperature Dew Point Pressure Wind Wind Speed Wind Gust Humidity Rainfall Rate (Hourly) solar
00:00 76.6 °F 73.2 °F 29.76 in SE 0.9 mph 7 mph 89% 0 in 0.00 W/m2
00:05 76.6 °F 73.2 °F 29.76 in SE 4.9 mph 6 mph 89% 0 in 0.00 W/m2
00:10 76.6 °F 73.2 °F 29.76 in SE 4 mph 4 mph 89% 0 in 0.00 W/m2
00:15 76.6 °F 73.2 °F 29.76 in ESE 4 mph 5 mph 89% 0 in 0.00 W/m2
00:20 76.5 °F 73 °F 29.76 in SSE 2.9 mph 4 mph 89% 0 in 0.00 W/m2
00:25 76.6 °F 73.2 °F 29.76 in SSE 0.9 mph 5 mph 89% 0 in 0.00 W/m2
00:30 76.5 °F 73 °F 29.76 in SE 0.9 mph 3 mph 89% 0 in 0.00 W/m2
00:36 76.5 °F 73.2 °F 29.76 in South 2 mph 3 mph 90% 0 in 0.00 W/m2
00:40 76.5 °F 73 °F 29.76 in SSE 4 mph 5 mph 89% 0 in 0.00 W/m2
00:45 76.5 °F 73 °F 29.75 in SSE 0.9 mph 3 mph 89% 0 in 0.00 W/m2
00:50 76.5 °F 73 °F 29.75 in South 0.9 mph 4 mph 89% 0 in 0.00 W/m2
00:55 76.5 °F 73 °F 29.75 in ESE 2 mph 8 mph 89% 0 in 0.00 W/m2
01:00 76.5 °F 73 °F 29.75 in SSW 2 mph 5 mph 89% 0 in 0.00 W/m2
01:05 76.5 °F 73 °F 29.75 in Calm   7 mph 89% 0 in 0.00 W/m2
01:10 76.3 °F 72.9 °F 29.75 in South 2.9 mph 7 mph 89% 0 in 0.00 W/m2
01:15 76.3 °F 72.9 °F 29.75 in South 4 mph 4 mph 89% 0 in 0.00 W/m2
01:20 76.3 °F 72.9 °F 29.75 in SE 0.9 mph 3 mph 89% 0 in 0.00 W/m2
01:25 76.3 °F 72.9 °F 29.75 in SSW 4 mph 8 mph 89% 0 in 0.00 W/m2
01:30 76.1 °F 72.7 °F 29.75 in SSE 6 mph 8 mph 89% 0 in 0.00 W/m2
01:35 75.9 °F 72.5 °F 29.75 in South 2.9 mph 4 mph 89% 0 in 0.00 W/m2
01:41 75.9 °F 72.5 °F 29.75 in ESE 2 mph 3 mph 89% 0 in 0.00 W/m2
01:45 75.9 °F 72.5 °F 29.75 in South 2.9 mph 5 mph 89% 0 in 0.00 W/m2
01:50 75.7 °F 72.3 °F 29.74 in SE 2 mph 3 mph 89% 0 in 0.00 W/m2
01:55 75.7 °F 72.3 °F 29.74 in SE 2.9 mph 6 mph 89% 0 in 0.00 W/m2
02:00 75.7 °F 72.3 °F 29.74 in South 2.9 mph 4 mph 89% 0 in 0.00 W/m2
02:05 75.7 °F 72.3 °F 29.74 in SSE 2.9 mph 5 mph 89% 0 in 0.00 W/m2
02:10 75.7 °F 72.3 °F 29.74 in SE 0.9 mph 2 mph 89% 0 in 0.00 W/m2
02:15 75.7 °F 72.3 °F 29.75 in SE 8.1 mph 8 mph 89% 0 in 0.00 W/m2
02:20 75.7 °F 72.3 °F 29.75 in SSE 0.9 mph 3 mph 89% 0 in 0.00 W/m2
02:25 75.7 °F 72.3 °F 29.74 in SE 2 mph 4 mph 89% 0 in 0.00 W/m2
02:30 75.7 °F 72.3 °F 29.74 in Calm   4 mph 89% 0 in 0.00 W/m2
02:35 75.7 °F 72.3 °F 29.74 in South 4 mph 5 mph 89% 0 in 0.00 W/m2
02:40 75.7 °F 72.3 °F 29.74 in SW 2 mph 2 mph 89% 0 in 0.00 W/m2
02:45 75.7 °F 72.3 °F 29.75 in South 2 mph 4 mph 89% 0 in 0.00 W/m2
02:50 75.7 °F 72.3 °F 29.75 in SSE 2 mph 2 mph 89% 0 in 0.00 W/m2
02:55 75.7 °F 72 °F 29.75 in South 2.9 mph 4 mph 88% 0 in 0.00 W/m2
03:00 75.7 °F 72 °F 29.75 in SSE 4 mph 4 mph 88% 0 in 0.00 W/m2
03:05 75.7 °F 72 °F 29.75 in SSE 0.9 mph 4 mph 88% 0 in 0.00 W/m2
03:11 75.7 °F 72 °F 29.75 in Calm   5 mph 88% 0 in 0.00 W/m2
03:15 75.7 °F 72 °F 29.74 in SSW 0.9 mph 6 mph 88% 0 in 0.00 W/m2
03:20 75.7 °F 72 °F 29.74 in SW 2.9 mph 6 mph 88% 0 in 0.00 W/m2
03:25 75.6 °F 71.8 °F 29.74 in SSE 8.1 mph 9 mph 88% 0 in 0.00 W/m2
03:30 75.6 °F 71.8 °F 29.74 in SW 2.9 mph 10 mph 88% 0 in 0.00 W/m2
03:35 75.7 °F 72 °F 29.74 in South 2 mph 4 mph 88% 0 in 0.00 W/m2
03:40 75.6 °F 72.1 °F 29.74 in SE 4 mph 7 mph 89% 0 in 0.00 W/m2
03:45 75.6 °F 72.1 °F 29.74 in SSE 4 mph 6 mph 89% 0 in 0.00 W/m2
03:50 75.6 °F 72.1 °F 29.74 in SSW 4.9 mph 7 mph 89% 0 in 0.00 W/m2
03:55 75.6 °F 72.1 °F 29.74 in SW 2 mph 5 mph 89% 0 in 0.00 W/m2
04:00 75.6 °F 72.1 °F 29.73 in North 0.9 mph 6 mph 89% 0 in 0.00 W/m2
04:05 75.4 °F 72 °F 29.73 in South 2.9 mph 4 mph 89% 0 in 0.00 W/m2
04:10 75.4 °F 72 °F 29.74 in West 0.9 mph 8 mph 89% 0 in 0.00 W/m2
04:15 75.4 °F 72 °F 29.74 in SE 0.9 mph 5 mph 89% 0 in 0.00 W/m2
04:20 75.4 °F 72 °F 29.74 in ESE 0.9 mph 6 mph 89% 0 in 0.00 W/m2
04:25 75.4 °F 72 °F 29.74 in ESE 0.9 mph 3 mph 89% 0 in 0.00 W/m2
04:30 75.2 °F 71.8 °F 29.74 in East 0.9 mph 4 mph 89% 0 in 0.00 W/m2
04:35 75.2 °F 71.8 °F 29.74 in SSE 4 mph 6 mph 89% 0 in 0.00 W/m2
04:40 75.4 °F 72 °F 29.74 in NE 2 mph 5 mph 89% 0 in 0.00 W/m2
04:45 75.2 °F 71.8 °F 29.74 in South 6 mph 7 mph 89% 0 in 0.00 W/m2
04:50 75.2 °F 71.8 °F 29.74 in WSW 0.9 mph 5 mph 89% 0 in 0.00 W/m2
04:55 75 °F 71.6 °F 29.74 in WNW 2 mph 4 mph 89% 0 in 0.00 W/m2
05:00 75 °F 71.6 °F 29.74 in ESE 0.9 mph 7 mph 89% 0 in 0.00 W/m2
05:05 75 °F 71.6 °F 29.74 in NNW 0.9 mph 7 mph 89% 0 in 0.00 W/m2
05:10 75 °F 71.6 °F 29.75 in South 4 mph 7 mph 89% 0 in 0.00 W/m2
05:15 75 °F 71.6 °F 29.75 in SW 4 mph 4 mph 89% 0 in 0.00 W/m2
05:20 75 °F 71.6 °F 29.75 in SSE 0.9 mph 6 mph 89% 0 in 0.00 W/m2
Flagler Gun & Archery Club Weather
Compliments of Weather Underground - 1.75 mb